Time;durP1;ratioP1;P1;durP2;ratioP2;P2;SDS_P1;SDS_P2;PMS_P1;PMS_P2;Temp;Humidity;BMP_temperature;BMP_pressure;BME280_temperature;BME280_humidity;BME280_pressure;Samples;Min_cycle;Max_cycle;Signal;HPM_P1;HPM_P2
2023/03/23 00:01:12;;;;;;;3.80;2.20;;;16.70;81.30;;;;;;5029396;28;20576;-63
2023/03/23 00:03:38;;;;;;;2.80;2.60;;;16.70;81.00;;;;;;5033476;28;20434;-63
2023/03/23 00:06:04;;;;;;;3.40;2.83;;;16.70;80.80;;;;;;5028296;28;20470;-63
2023/03/23 00:08:44;;;;;;;2.70;2.33;;;16.80;80.90;;;;;;5033491;28;20476;-63
2023/03/23 00:11:18;;;;;;;2.63;2.30;;;16.70;80.30;;;;;;5028813;28;20601;-63
2023/03/23 00:13:50;;;;;;;3.10;2.80;;;16.80;80.20;;;;;;5027221;28;20789;-63
2023/03/23 00:16:17;;;;;;;2.70;2.50;;;16.70;80.10;;;;;;5026063;28;20463;-63
2023/03/23 00:18:53;;;;;;;2.70;2.40;;;16.70;80.20;;;;;;5029608;28;20701;-63
2023/03/23 00:21:25;;;;;;;3.23;2.93;;;16.80;79.90;;;;;;5027417;28;21007;-62
2023/03/23 00:23:51;;;;;;;2.77;2.50;;;16.80;79.40;;;;;;5024787;28;20447;-64
2023/03/23 00:26:17;;;;;;;3.63;2.30;;;16.90;79.70;;;;;;5027591;28;20979;-63
2023/03/23 00:28:42;;;;;;;2.70;2.37;;;16.90;79.50;;;;;;5025599;28;20450;-63
2023/03/23 00:31:11;;;;;;;3.00;2.70;;;16.90;79.60;;;;;;5027379;28;20475;-63
2023/03/23 00:33:38;;;;;;;2.93;2.40;;;16.80;79.60;;;;;;5026897;28;20188;-63
2023/03/23 00:36:08;;;;;;;4.13;2.37;;;16.80;79.90;;;;;;5025531;28;20975;-63
2023/03/23 00:38:35;;;;;;;2.80;2.33;;;16.90;79.70;;;;;;5026823;28;20442;-63
2023/03/23 00:41:04;;;;;;;2.63;1.97;;;16.90;79.40;;;;;;5026216;28;20441;-63
2023/03/23 00:43:29;;;;;;;2.63;2.43;;;16.90;79.60;;;;;;5027162;28;20517;-63
2023/03/23 00:45:56;;;;;;;4.60;2.70;;;17.00;80.20;;;;;;5025435;28;20446;-63
2023/03/23 00:48:24;;;;;;;2.57;2.37;;;16.90;79.30;;;;;;5030440;28;20168;-63
2023/03/23 00:50:51;;;;;;;2.43;2.23;;;16.90;79.20;;;;;;5023948;28;20442;-63
2023/03/23 00:53:17;;;;;;;6.70;2.40;;;16.90;79.20;;;;;;5027301;28;20435;-63
2023/03/23 00:55:44;;;;;;;2.10;1.90;;;16.90;79.00;;;;;;5030074;28;20446;-63
2023/03/23 00:58:11;;;;;;;2.50;2.30;;;16.90;78.90;;;;;;5027900;28;20929;-63
2023/03/23 01:00:37;;;;;;;4.17;2.77;;;16.90;79.10;;;;;;5030460;28;20449;-63
2023/03/23 01:03:04;;;;;;;5.60;2.60;;;17.00;79.20;;;;;;5026604;28;20434;-63
2023/03/23 01:05:33;;;;;;;3.00;2.53;;;16.90;79.20;;;;;;5023560;28;20838;-62
2023/03/23 01:07:59;;;;;;;2.80;2.50;;;16.90;79.60;;;;;;5023038;28;20880;-63
2023/03/23 01:10:26;;;;;;;4.03;2.50;;;16.90;80.60;;;;;;5028103;28;20439;-62
2023/03/23 01:12:52;;;;;;;3.20;2.60;;;16.90;79.90;;;;;;5026048;28;20215;-62
2023/03/23 01:15:19;;;;;;;3.40;2.43;;;16.90;79.90;;;;;;5028705;28;20434;-63
2023/03/23 01:17:45;;;;;;;4.00;2.93;;;17.00;80.20;;;;;;5030951;28;20447;-63
2023/03/23 01:20:15;;;;;;;3.10;2.80;;;17.10;79.80;;;;;;5029102;28;21175;-62
2023/03/23 01:22:41;;;;;;;3.17;2.70;;;17.00;80.10;;;;;;5030450;28;20515;-62
2023/03/23 01:25:09;;;;;;;2.80;2.60;;;17.00;80.30;;;;;;5024561;28;20819;-62
2023/03/23 01:27:34;;;;;;;3.57;2.70;;;17.10;80.10;;;;;;5030404;28;20560;-62
2023/03/23 01:30:00;;;;;;;3.20;2.77;;;17.10;80.10;;;;;;5027804;28;20595;-62
2023/03/23 01:32:26;;;;;;;3.77;2.30;;;17.10;79.90;;;;;;5033324;28;20181;-62
2023/03/23 01:34:52;;;;;;;3.17;2.60;;;17.10;79.70;;;;;;5035454;28;20501;-62
2023/03/23 01:37:19;;;;;;;2.50;2.30;;;17.10;79.70;;;;;;5027730;28;20540;-62
2023/03/23 01:39:45;;;;;;;2.57;2.37;;;17.10;79.40;;;;;;5026200;28;20689;-62
2023/03/23 01:42:11;;;;;;;2.97;2.40;;;17.10;79.30;;;;;;5026644;28;21416;-62
2023/03/23 01:44:37;;;;;;;2.97;2.40;;;17.20;79.00;;;;;;5029053;28;21082;-62
2023/03/23 01:47:03;;;;;;;2.90;2.70;;;17.20;79.00;;;;;;5028205;28;20528;-62
2023/03/23 01:49:33;;;;;;;2.90;2.50;;;17.20;78.70;;;;;;5027040;28;20252;-63
2023/03/23 01:52:03;;;;;;;3.17;2.57;;;17.30;78.50;;;;;;5029736;28;20461;-63
2023/03/23 01:54:29;;;;;;;2.60;2.40;;;17.20;78.30;;;;;;5033155;28;20422;-63
2023/03/23 01:57:06;;;;;;;3.00;2.67;;;17.40;78.20;;;;;;5027498;28;20467;-63
2023/03/23 01:59:33;;;;;;;3.33;2.47;;;17.30;77.70;;;;;;5026326;28;20490;-63
2023/03/23 02:02:00;;;;;;;3.53;2.80;;;17.40;77.90;;;;;;5026433;28;20913;-63
2023/03/23 02:04:27;;;;;;;3.33;2.90;;;17.40;77.30;;;;;;5035480;28;20410;-62
2023/03/23 02:06:54;;;;;;;3.53;2.70;;;17.40;77.20;;;;;;5027583;28;20881;-63
2023/03/23 02:09:21;;;;;;;3.87;2.37;;;17.50;77.00;;;;;;5028358;28;20437;-63
2023/03/23 02:11:47;;;;;;;5.90;2.67;;;17.50;77.10;;;;;;5026020;28;20439;-62
2023/03/23 02:14:14;;;;;;;4.37;2.80;;;17.60;77.00;;;;;;5026271;28;20554;-63
2023/03/23 02:16:45;;;;;;;5.60;2.87;;;17.60;76.70;;;;;;5027043;28;20473;-63
2023/03/23 02:19:41;;;;;;;3.03;2.73;;;17.50;76.60;;;;;;5026180;28;21079;-62
2023/03/23 02:22:44;;;;;;;2.70;2.47;;;17.60;76.50;;;;;;5025242;28;20435;-63
2023/03/23 02:25:47;;;;;;;3.57;2.50;;;17.70;76.10;;;;;;5026004;28;21446;-62
2023/03/23 02:28:16;;;;;;;2.63;2.43;;;17.70;76.10;;;;;;5018725;28;21021;-62
2023/03/23 02:31:29;;;;;;;3.20;2.80;;;17.70;76.30;;;;;;5030685;28;20442;-62
2023/03/23 02:33:57;;;;;;;2.60;2.40;;;17.80;76.20;;;;;;5019324;28;20429;-62
2023/03/23 02:36:32;;;;;;;3.70;3.10;;;17.70;76.10;;;;;;5024832;28;20870;-63
2023/03/23 02:39:03;;;;;;;4.60;2.50;;;17.80;76.20;;;;;;5024315;28;21236;-62
2023/03/23 02:41:34;;;;;;;4.27;3.00;;;17.80;76.10;;;;;;5027017;28;20518;-62
2023/03/23 02:44:03;;;;;;;2.90;2.60;;;17.80;76.20;;;;;;5024724;28;20886;-62
2023/03/23 02:46:30;;;;;;;3.90;2.67;;;17.80;76.20;;;;;;5027796;28;20514;-62
2023/03/23 02:48:58;;;;;;;2.73;2.53;;;17.80;76.30;;;;;;5020893;28;20448;-62
2023/03/23 02:51:26;;;;;;;3.73;3.03;;;17.80;76.40;;;;;;5028091;28;20430;-62
2023/03/23 02:53:54;;;;;;;3.80;3.40;;;17.80;76.60;;;;;;5030911;28;20449;-62
2023/03/23 02:56:23;;;;;;;3.30;2.93;;;17.80;76.60;;;;;;5021766;28;20458;-62
2023/03/23 02:58:48;;;;;;;2.90;2.60;;;17.90;76.60;;;;;;5029354;28;20840;-62
2023/03/23 03:01:36;;;;;;;3.67;2.63;;;17.90;76.40;;;;;;5024618;28;20446;-62
2023/03/23 03:04:14;;;;;;;3.17;2.87;;;17.90;76.40;;;;;;5027128;28;20203;-62
2023/03/23 03:07:11;;;;;;;5.70;3.00;;;18.00;76.60;;;;;;5021272;28;20580;-62
2023/03/23 03:09:50;;;;;;;3.03;2.73;;;17.90;76.80;;;;;;5025333;28;20427;-62
2023/03/23 03:12:51;;;;;;;3.80;2.50;;;17.90;76.90;;;;;;5027389;28;20463;-62
2023/03/23 03:15:43;;;;;;;6.80;3.30;;;17.90;77.20;;;;;;5021224;28;20439;-62
2023/03/23 03:18:44;;;;;;;3.00;2.70;;;18.00;77.70;;;;;;5019579;28;20821;-62
2023/03/23 03:21:14;;;;;;;2.90;2.50;;;17.90;78.20;;;;;;5020121;28;21105;-62
2023/03/23 03:23:42;;;;;;;3.70;2.80;;;17.90;79.10;;;;;;5023452;28;20452;-63
2023/03/23 03:26:11;;;;;;;2.87;2.63;;;17.80;80.00;;;;;;5026125;28;20470;-63
2023/03/23 03:28:38;;;;;;;3.00;2.80;;;17.80;80.60;;;;;;5027250;28;20435;-63
2023/03/23 03:31:05;;;;;;;3.07;2.77;;;17.70;80.70;;;;;;5025609;28;20435;-63
2023/03/23 03:33:33;;;;;;;4.13;2.70;;;17.70;81.20;;;;;;5027077;28;20445;-62
2023/03/23 03:36:02;;;;;;;2.97;2.67;;;17.60;81.40;;;;;;5022953;28;20435;-62
2023/03/23 03:38:27;;;;;;;3.70;2.87;;;17.60;81.70;;;;;;5026459;28;20434;-62
2023/03/23 03:40:54;;;;;;;4.00;3.03;;;17.60;81.90;;;;;;5025391;28;20445;-62
2023/03/23 03:43:20;;;;;;;3.60;2.43;;;17.60;82.10;;;;;;5027322;28;20239;-62
2023/03/23 03:45:46;;;;;;;3.37;2.80;;;17.60;82.20;;;;;;5026407;28;20438;-63
2023/03/23 03:48:12;;;;;;;3.87;2.87;;;17.50;82.40;;;;;;5031570;28;20212;-62
2023/03/23 03:50:37;;;;;;;6.07;3.30;;;17.60;82.50;;;;;;5027095;28;20179;-62
2023/03/23 03:53:03;;;;;;;4.00;2.83;;;17.60;82.60;;;;;;5030706;28;20495;-62
2023/03/23 03:55:35;;;;;;;3.03;2.73;;;17.60;83.00;;;;;;5033591;28;20561;-63
2023/03/23 03:58:01;;;;;;;5.03;2.77;;;17.60;83.00;;;;;;5021449;28;21270;-62
2023/03/23 04:00:26;;;;;;;2.87;2.57;;;17.60;83.20;;;;;;5025633;28;21173;-62
2023/03/23 04:02:53;;;;;;;7.00;2.80;;;17.60;83.30;;;;;;5026717;28;20443;-63
2023/03/23 04:05:21;;;;;;;3.17;2.67;;;17.60;83.40;;;;;;5018520;28;20181;-62
2023/03/23 04:07:49;;;;;;;4.00;2.83;;;17.60;83.70;;;;;;5029706;28;20488;-63
2023/03/23 04:10:15;;;;;;;4.70;3.10;;;17.50;83.50;;;;;;5023716;28;20450;-62
2023/03/23 04:12:40;;;;;;;3.27;2.97;;;17.60;83.60;;;;;;5029782;28;20491;-63
2023/03/23 04:15:07;;;;;;;5.37;2.90;;;17.50;83.50;;;;;;5027219;28;20180;-63
2023/03/23 04:17:33;;;;;;;3.23;2.90;;;17.60;83.70;;;;;;5028044;28;20235;-62
2023/03/23 04:20:12;;;;;;;2.80;2.60;;;17.60;83.90;;;;;;5032607;28;20434;-62
2023/03/23 04:22:38;;;;;;;3.43;2.73;;;17.60;83.80;;;;;;5019871;28;20435;-63
2023/03/23 04:25:06;;;;;;;5.90;3.10;;;17.70;83.90;;;;;;5028369;28;20480;-62
2023/03/23 04:27:32;;;;;;;3.10;2.80;;;17.60;84.20;;;;;;5023962;28;20212;-62
2023/03/23 04:29:58;;;;;;;2.80;2.60;;;17.60;84.50;;;;;;5023654;28;20443;-63
2023/03/23 04:32:28;;;;;;;4.40;3.00;;;17.60;84.60;;;;;;5030525;28;20415;-62
2023/03/23 04:34:59;;;;;;;3.20;2.90;;;17.50;84.90;;;;;;5030418;28;20177;-63
2023/03/23 04:37:28;;;;;;;3.27;2.87;;;17.40;85.40;;;;;;5027096;28;21014;-62
2023/03/23 04:39:59;;;;;;;5.73;3.00;;;17.40;85.50;;;;;;5028973;28;20431;-63
2023/03/23 04:42:28;;;;;;;4.37;3.33;;;17.40;85.50;;;;;;5035391;28;20441;-62
2023/03/23 04:44:54;;;;;;;3.47;3.17;;;17.40;85.70;;;;;;5026250;28;20443;-62
2023/03/23 04:47:20;;;;;;;4.67;3.17;;;17.40;85.90;;;;;;5030381;28;20462;-62
2023/03/23 04:49:45;;;;;;;3.93;2.93;;;17.40;86.00;;;;;;5026793;28;20442;-62
2023/03/23 04:52:11;;;;;;;3.57;3.10;;;17.20;86.20;;;;;;5030289;28;20529;-62
2023/03/23 04:54:36;;;;;;;3.10;2.77;;;17.10;86.80;;;;;;5031803;28;20266;-62
2023/03/23 04:57:03;;;;;;;5.13;2.87;;;17.20;87.00;;;;;;5023214;28;20597;-62
2023/03/23 04:59:30;;;;;;;3.30;3.00;;;17.00;87.30;;;;;;5033774;28;20180;-62
2023/03/23 05:01:56;;;;;;;5.10;3.70;;;17.10;87.80;;;;;;5030022;28;20443;-62
2023/03/23 05:04:22;;;;;;;4.00;3.30;;;17.00;87.90;;;;;;5027503;28;20447;-63
2023/03/23 05:06:48;;;;;;;3.13;2.80;;;16.90;88.50;;;;;;5029121;28;20314;-62
2023/03/23 05:09:14;;;;;;;4.73;3.10;;;17.00;88.80;;;;;;5026858;28;20418;-62
2023/03/23 05:11:39;;;;;;;4.77;3.43;;;16.90;89.00;;;;;;5029443;28;20188;-62
2023/03/23 05:14:05;;;;;;;3.37;3.07;;;16.80;90.00;;;;;;5021174;28;20179;-63
2023/03/23 05:16:31;;;;;;;3.47;2.93;;;16.70;90.50;;;;;;5027347;28;20200;-63
2023/03/23 05:19:00;;;;;;;3.57;3.27;;;16.70;90.80;;;;;;5026926;28;20554;-62
2023/03/23 05:21:26;;;;;;;3.87;3.40;;;16.60;91.30;;;;;;5029178;28;20180;-63
2023/03/23 05:23:56;;;;;;;3.70;3.30;;;16.60;91.80;;;;;;5028615;28;20442;-63
2023/03/23 05:26:24;;;;;;;3.90;3.37;;;16.60;92.10;;;;;;5028511;28;20870;-63
2023/03/23 05:28:52;;;;;;;3.83;3.40;;;16.60;92.20;;;;;;5032052;28;20466;-62
2023/03/23 05:31:19;;;;;;;3.57;3.23;;;16.60;92.60;;;;;;5023400;28;20505;-62
2023/03/23 05:33:45;;;;;;;5.40;3.47;;;16.60;92.30;;;;;;5029674;28;20442;-63
2023/03/23 05:36:13;;;;;;;3.97;3.20;;;16.60;92.50;;;;;;5027249;28;20515;-62
2023/03/23 05:38:40;;;;;;;3.87;3.47;;;16.50;92.50;;;;;;5034317;28;20418;-62
2023/03/23 05:41:06;;;;;;;3.37;2.80;;;16.50;92.80;;;;;;5024754;28;20430;-62
2023/03/23 05:43:31;;;;;;;5.50;3.33;;;16.60;92.60;;;;;;5026209;28;20534;-62
2023/03/23 05:45:57;;;;;;;4.13;3.60;;;16.60;92.70;;;;;;5024150;28;20457;-63
2023/03/23 05:48:23;;;;;;;7.23;3.93;;;16.60;92.70;;;;;;5026715;28;20449;-63
2023/03/23 05:50:48;;;;;;;5.00;3.60;;;16.60;92.80;;;;;;5026474;28;20184;-63
2023/03/23 05:53:14;;;;;;;9.67;3.60;;;16.50;93.10;;;;;;5025833;28;20184;-62
2023/03/23 05:55:39;;;;;;;6.70;3.57;;;16.50;93.40;;;;;;5026774;28;20175;-62
2023/03/23 05:58:05;;;;;;;7.10;3.30;;;16.60;93.50;;;;;;5023150;28;20208;-63
2023/03/23 06:00:32;;;;;;;7.53;3.47;;;16.60;93.70;;;;;;5028346;28;20195;-62
2023/03/23 06:02:58;;;;;;;4.30;3.50;;;16.60;93.60;;;;;;5026016;28;20683;-63
2023/03/23 06:05:25;;;;;;;3.70;3.30;;;16.60;94.00;;;;;;5028161;28;20477;-63
2023/03/23 06:07:52;;;;;;;4.63;3.33;;;16.50;94.40;;;;;;5028038;28;20621;-63
2023/03/23 06:10:17;;;;;;;4.57;3.60;;;16.40;94.90;;;;;;5026058;28;20809;-63
2023/03/23 06:12:43;;;;;;;3.43;3.10;;;16.40;95.20;;;;;;5027131;28;20471;-63
2023/03/23 06:15:10;;;;;;;7.30;4.07;;;16.40;95.30;;;;;;5021807;28;20220;-63
2023/03/23 06:17:36;;;;;;;4.13;3.50;;;16.40;95.50;;;;;;5024059;28;20872;-63
2023/03/23 06:20:07;;;;;;;3.77;3.30;;;16.40;95.60;;;;;;5021214;28;20509;-62
2023/03/23 06:22:33;;;;;;;3.90;3.50;;;16.40;96.10;;;;;;5025410;28;20430;-62
2023/03/23 06:24:58;;;;;;;3.40;3.10;;;16.40;96.60;;;;;;5026178;28;20426;-63
2023/03/23 06:27:24;;;;;;;4.83;3.27;;;16.30;96.90;;;;;;5021697;28;20584;-63
2023/03/23 06:29:50;;;;;;;4.10;3.57;;;16.30;97.00;;;;;;5025493;28;20188;-63
2023/03/23 06:32:15;;;;;;;6.20;3.20;;;16.30;97.10;;;;;;5021171;28;20184;-63
2023/03/23 06:34:44;;;;;;;3.30;3.00;;;16.40;97.30;;;;;;5024932;28;20191;-63
2023/03/23 06:37:10;;;;;;;5.70;3.30;;;16.30;97.40;;;;;;5024830;28;20251;-63
2023/03/23 06:39:38;;;;;;;5.57;3.40;;;16.40;97.60;;;;;;5025441;28;20462;-63
2023/03/23 06:42:04;;;;;;;5.10;4.00;;;16.40;97.60;;;;;;5022053;28;20465;-62
2023/03/23 06:44:29;;;;;;;5.30;3.87;;;16.30;97.70;;;;;;5022284;28;20439;-62
2023/03/23 06:46:55;;;;;;;7.17;4.23;;;16.30;97.90;;;;;;5021453;28;20227;-62
2023/03/23 06:49:20;;;;;;;6.70;3.83;;;16.30;98.00;;;;;;5024469;28;20179;-62
2023/03/23 06:51:46;;;;;;;4.03;3.63;;;16.30;98.20;;;;;;5022292;28;20184;-62
2023/03/23 06:54:11;;;;;;;4.00;3.33;;;16.30;98.40;;;;;;5022473;28;20191;-62
2023/03/23 06:56:37;;;;;;;11.03;4.03;;;16.30;98.20;;;;;;5024946;28;20208;-62
2023/03/23 06:59:03;;;;;;;8.53;3.80;;;16.30;98.50;;;;;;5024976;28;20180;-62
2023/03/23 07:01:29;;;;;;;10.00;3.93;;;16.20;98.40;;;;;;5023110;28;20555;-61
2023/03/23 07:03:55;;;;;;;5.43;3.83;;;16.30;98.50;;;;;;5027466;28;20500;-62
2023/03/23 07:06:21;;;;;;;3.70;3.37;;;16.20;98.80;;;;;;5022275;28;20471;-63
2023/03/23 07:08:47;;;;;;;3.50;3.20;;;16.10;98.90;;;;;;5026902;28;20173;-64
2023/03/23 07:11:13;;;;;;;4.47;3.00;;;16.00;99.20;;;;;;5023911;28;20521;-62
2023/03/23 07:13:38;;;;;;;6.90;3.03;;;16.00;99.80;;;;;;5028208;28;20608;-62
2023/03/23 07:16:07;;;;;;;6.33;4.30;;;16.00;99.90;;;;;;5024959;28;20184;-63
2023/03/23 07:18:33;;;;;;;3.97;3.20;;;16.00;99.90;;;;;;5021972;28;20184;-63
2023/03/23 07:20:59;;;;;;;4.23;3.60;;;16.00;99.90;;;;;;5029336;28;20874;-63
2023/03/23 07:23:25;;;;;;;5.80;3.50;;;15.90;99.90;;;;;;5020986;28;20188;-63
2023/03/23 07:25:51;;;;;;;8.97;3.70;;;16.10;99.90;;;;;;5028183;28;20427;-63
2023/03/23 07:28:18;;;;;;;5.67;3.23;;;16.10;99.90;;;;;;5024822;28;20204;-63
2023/03/23 07:30:44;;;;;;;3.80;3.33;;;16.10;99.90;;;;;;5028772;28;20439;-63
2023/03/23 07:33:10;;;;;;;4.27;3.00;;;16.10;99.90;;;;;;5026652;28;20438;-62
2023/03/23 07:35:36;;;;;;;4.30;3.77;;;16.20;99.90;;;;;;5023098;28;20473;-61
2023/03/23 07:38:03;;;;;;;3.60;3.23;;;16.10;99.90;;;;;;5015856;28;20879;-63
2023/03/23 07:40:32;;;;;;;4.50;3.83;;;16.10;99.90;;;;;;5023081;28;20925;-63
2023/03/23 07:42:59;;;;;;;4.37;3.67;;;16.10;99.90;;;;;;5027854;28;20427;-63
2023/03/23 07:45:26;;;;;;;4.40;3.37;;;16.10;99.90;;;;;;5026005;28;21936;-63
2023/03/23 07:47:52;;;;;;;4.60;3.43;;;16.20;99.90;;;;;;5020733;28;20565;-62
2023/03/23 07:50:22;;;;;;;7.60;3.63;;;16.20;99.90;;;;;;5024065;28;20434;-63
2023/03/23 07:52:47;;;;;;;3.67;3.20;;;16.10;99.90;;;;;;5030591;28;20532;-63
2023/03/23 07:55:17;;;;;;;6.37;3.67;;;16.10;99.90;;;;;;5023071;28;20515;-62
2023/03/23 07:57:47;;;;;;;5.87;3.90;;;16.10;99.90;;;;;;5025897;28;20323;-62
2023/03/23 08:00:18;;;;;;;3.77;3.37;;;16.10;99.90;;;;;;5021943;28;20444;-63
2023/03/23 08:02:45;;;;;;;6.37;3.60;;;16.10;99.90;;;;;;5025808;28;20438;-63
2023/03/23 08:05:13;;;;;;;6.20;3.30;;;16.20;99.90;;;;;;5025884;28;20459;-63
2023/03/23 08:07:39;;;;;;;6.87;3.77;;;16.20;99.90;;;;;;5033173;28;20560;-63
2023/03/23 08:10:09;;;;;;;5.63;3.70;;;16.30;99.90;;;;;;5030686;28;20431;-64
2023/03/23 08:12:35;;;;;;;4.20;3.40;;;16.40;99.90;;;;;;5028931;28;20850;-64
2023/03/23 08:15:01;;;;;;;6.83;4.00;;;16.50;99.90;;;;;;5028027;28;20568;-64
2023/03/23 08:17:26;;;;;;;3.87;3.40;;;16.50;99.90;;;;;;5026191;28;20204;-64
2023/03/23 08:19:52;;;;;;;4.80;3.50;;;16.60;99.90;;;;;;5030627;28;20627;-63
2023/03/23 08:22:18;;;;;;;3.30;3.00;;;16.60;99.90;;;;;;5026121;28;20200;-63
2023/03/23 08:24:43;;;;;;;4.63;2.80;;;16.70;99.90;;;;;;5031333;28;20176;-62
2023/03/23 08:27:09;;;;;;;5.23;2.90;;;16.70;99.90;;;;;;5028568;28;20281;-63
2023/03/23 08:29:35;;;;;;;4.77;2.93;;;16.70;99.90;;;;;;5029296;28;20270;-63
2023/03/23 08:32:02;;;;;;;4.40;3.10;;;16.70;99.90;;;;;;5030608;28;20707;-62
2023/03/23 08:34:29;;;;;;;4.17;2.90;;;16.70;99.90;;;;;;5028800;28;20563;-63
2023/03/23 08:36:55;;;;;;;3.73;2.80;;;16.90;99.90;;;;;;5032728;28;20446;-63
2023/03/23 08:39:23;;;;;;;5.43;2.90;;;17.00;99.90;;;;;;5028485;28;20477;-63
2023/03/23 08:41:49;;;;;;;3.40;2.80;;;17.20;99.90;;;;;;5030625;28;20438;-62
2023/03/23 08:44:15;;;;;;;4.83;3.10;;;17.10;99.90;;;;;;5034451;28;20468;-63
2023/03/23 08:46:40;;;;;;;2.97;2.67;;;17.10;99.90;;;;;;5027062;28;20458;-62
2023/03/23 08:49:06;;;;;;;7.67;5.30;;;17.20;99.90;;;;;;5028558;28;20975;-63
2023/03/23 08:51:32;;;;;;;4.33;2.80;;;17.40;99.90;;;;;;5029327;28;20335;-62
2023/03/23 08:53:58;;;;;;;4.30;3.23;;;17.40;99.90;;;;;;5027063;28;20311;-62
2023/03/23 08:56:24;;;;;;;3.03;2.70;;;17.40;99.90;;;;;;5024992;28;21107;-63
2023/03/23 08:58:49;;;;;;;6.53;3.10;;;17.30;99.90;;;;;;5032171;28;20188;-63
2023/03/23 09:01:15;;;;;;;3.90;3.20;;;17.30;99.90;;;;;;5023102;28;20267;-63
2023/03/23 09:03:41;;;;;;;3.00;2.60;;;17.40;99.90;;;;;;5030737;28;20175;-64
2023/03/23 09:06:08;;;;;;;3.80;2.53;;;17.40;99.90;;;;;;5029326;28;20184;-63
2023/03/23 09:08:35;;;;;;;2.70;2.03;;;17.20;99.90;;;;;;5028215;28;20875;-62
2023/03/23 09:11:06;;;;;;;4.77;2.83;;;17.10;99.90;;;;;;5028901;28;20517;-62
2023/03/23 09:13:32;;;;;;;5.33;2.80;;;17.00;99.90;;;;;;5025126;28;20980;-63
2023/03/23 09:15:58;;;;;;;3.00;2.60;;;16.80;99.90;;;;;;5028280;28;20434;-62
2023/03/23 09:18:24;;;;;;;3.00;2.70;;;16.90;99.90;;;;;;5027235;28;21176;-64
2023/03/23 09:20:50;;;;;;;5.77;2.50;;;17.00;99.90;;;;;;5030237;28;20646;-63
2023/03/23 09:23:16;;;;;;;3.53;2.70;;;16.90;99.90;;;;;;5021128;28;20635;-61
2023/03/23 09:25:43;;;;;;;3.80;2.50;;;16.80;99.90;;;;;;5026170;28;20450;-62
2023/03/23 09:28:09;;;;;;;5.83;3.03;;;16.80;99.90;;;;;;5026890;28;20219;-62
2023/03/23 09:30:37;;;;;;;2.80;2.50;;;16.80;99.90;;;;;;5025608;28;20530;-63
2023/03/23 09:33:04;;;;;;;4.13;2.50;;;16.80;99.90;;;;;;5023565;28;20442;-63
2023/03/23 09:35:31;;;;;;;4.47;2.60;;;16.80;99.90;;;;;;5022922;28;20419;-62
2023/03/23 09:38:00;;;;;;;3.10;2.73;;;16.70;99.90;;;;;;5025508;28;21035;-62
2023/03/23 09:40:41;;;;;;;2.73;2.30;;;16.60;99.90;;;;;;5026514;28;20840;-62
2023/03/23 09:43:38;;;;;;;3.43;2.90;;;16.20;99.90;;;;;;5023568;28;20521;-62
2023/03/23 09:46:32;;;;;;;3.33;2.67;;;16.30;99.90;;;;;;5028343;28;20443;-62
2023/03/23 09:49:22;;;;;;;3.17;2.30;;;16.20;99.90;;;;;;5031193;28;20786;-62
2023/03/23 09:51:54;;;;;;;3.83;2.20;;;16.10;99.90;;;;;;5026302;28;20831;-63
2023/03/23 09:54:20;;;;;;;2.83;2.53;;;16.00;99.90;;;;;;5027475;28;20958;-62
2023/03/23 09:56:47;;;;;;;3.50;2.50;;;16.00;99.90;;;;;;5023428;28;20455;-62
2023/03/23 09:59:31;;;;;;;3.33;2.20;;;15.70;99.90;;;;;;5028606;28;20187;-63
2023/03/23 10:02:20;;;;;;;3.93;2.50;;;15.80;99.90;;;;;;5028337;28;20431;-64
2023/03/23 10:04:49;;;;;;;2.97;2.60;;;15.90;99.90;;;;;;5025078;28;20435;-64
2023/03/23 10:07:23;;;;;;;3.90;3.20;;;15.90;99.90;;;;;;5022519;28;20476;-64
2023/03/23 10:10:00;;;;;;;3.27;2.40;;;15.90;99.90;;;;;;5026033;28;20521;-64
2023/03/23 10:12:35;;;;;;;3.03;2.00;;;15.80;99.90;;;;;;5027820;28;21053;-62
2023/03/23 10:15:25;;;;;;;3.23;2.10;;;15.80;99.90;;;;;;5019715;28;20438;-61
2023/03/23 10:18:16;;;;;;;3.70;2.87;;;15.80;99.90;;;;;;5024848;28;20608;-62
2023/03/23 10:20:56;;;;;;;2.33;2.13;;;15.80;99.90;;;;;;5027445;28;20464;-65
2023/03/23 10:23:36;;;;;;;2.90;2.10;;;15.80;99.90;;;;;;5024915;28;20471;-62
2023/03/23 10:26:30;;;;;;;2.70;2.20;;;15.80;99.90;;;;;;5030030;28;20804;-62
2023/03/23 10:29:07;;;;;;;3.00;2.60;;;15.80;99.90;;;;;;5027495;28;20807;-62
2023/03/23 10:31:38;;;;;;;6.07;2.37;;;15.90;99.90;;;;;;5026737;28;20442;-62
2023/03/23 10:34:18;;;;;;;5.70;2.33;;;16.00;99.90;;;;;;5030038;28;20566;-62
2023/03/23 10:36:57;;;;;;;2.60;2.40;;;16.00;99.90;;;;;;5024696;28;20718;-62
2023/03/23 10:39:28;;;;;;;3.03;2.47;;;16.00;99.90;;;;;;5020914;28;20445;-62
2023/03/23 10:41:54;;;;;;;3.57;2.30;;;16.00;99.90;;;;;;5031260;28;21009;-62
2023/03/23 10:44:22;;;;;;;3.00;2.70;;;15.90;99.90;;;;;;5021710;28;20481;-62
2023/03/23 10:46:58;;;;;;;3.50;2.30;;;16.00;99.90;;;;;;5022547;28;20220;-62
2023/03/23 10:49:43;;;;;;;2.83;2.30;;;16.00;99.90;;;;;;5026564;28;20449;-61
2023/03/23 10:52:19;;;;;;;3.30;2.50;;;15.80;99.90;;;;;;5027774;28;20431;-62
2023/03/23 10:55:15;;;;;;;4.17;2.70;;;15.80;99.90;;;;;;5028870;28;20423;-62
2023/03/23 10:57:44;;;;;;;2.60;2.40;;;16.00;99.90;;;;;;5026915;28;20477;-62
2023/03/23 11:00:27;;;;;;;3.60;2.57;;;15.90;99.90;;;;;;5022610;28;20477;-62
2023/03/23 11:02:59;;;;;;;2.80;2.33;;;15.80;99.90;;;;;;5025738;28;20542;-61
2023/03/23 11:05:40;;;;;;;3.93;3.00;;;15.90;99.90;;;;;;5024838;28;20473;-62
2023/03/23 11:08:16;;;;;;;4.20;2.73;;;15.80;99.90;;;;;;5027349;28;20563;-61
2023/03/23 11:10:50;;;;;;;4.27;3.27;;;15.60;99.90;;;;;;5026063;28;20549;-62
2023/03/23 11:13:17;;;;;;;3.63;2.70;;;15.60;99.90;;;;;;5024415;28;20438;-62
2023/03/23 11:15:45;;;;;;;2.90;2.50;;;15.70;99.90;;;;;;5023270;28;20891;-61
2023/03/23 11:18:29;;;;;;;5.00;2.90;;;15.60;99.90;;;;;;5022997;28;20466;-62
2023/03/23 11:20:57;;;;;;;3.47;2.57;;;15.70;99.90;;;;;;5017398;28;20445;-61
2023/03/23 11:23:29;;;;;;;4.23;2.80;;;15.60;99.90;;;;;;5022940;28;20454;-61
2023/03/23 11:25:58;;;;;;;3.73;3.10;;;15.70;99.90;;;;;;5025347;28;20431;-61
2023/03/23 11:28:35;;;;;;;3.30;2.70;;;15.70;99.90;;;;;;5023549;28;20463;-61
2023/03/23 11:31:03;;;;;;;2.40;2.20;;;15.80;99.90;;;;;;5024142;28;20437;-61
2023/03/23 11:33:34;;;;;;;3.63;2.70;;;15.90;99.90;;;;;;5025087;28;20435;-61
2023/03/23 11:36:00;;;;;;;3.03;2.40;;;16.00;99.90;;;;;;5026428;28;20438;-60
2023/03/23 11:38:27;;;;;;;4.53;3.00;;;16.10;99.90;;;;;;5023145;28;20486;-61
2023/03/23 11:40:53;;;;;;;4.93;2.70;;;16.00;99.90;;;;;;5025792;28;20951;-60
2023/03/23 11:43:23;;;;;;;2.67;2.20;;;16.10;99.90;;;;;;5029310;28;20422;-60
2023/03/23 11:46:09;;;;;;;2.93;2.63;;;16.20;99.90;;;;;;5027774;28;20191;-60
2023/03/23 11:49:08;;;;;;;5.40;2.57;;;16.20;99.90;;;;;;5023837;28;21088;-60
2023/03/23 11:51:51;;;;;;;3.40;2.50;;;16.30;99.90;;;;;;5027617;28;20441;-60
2023/03/23 11:54:33;;;;;;;5.23;3.00;;;16.40;99.90;;;;;;5027083;28;20805;-61
2023/03/23 11:56:59;;;;;;;3.03;2.53;;;16.30;99.90;;;;;;5028435;28;20486;-60
2023/03/23 11:59:33;;;;;;;5.60;2.70;;;16.50;99.90;;;;;;5024721;28;20543;-60
2023/03/23 12:02:27;;;;;;;3.10;2.60;;;16.60;99.90;;;;;;5023732;28;20191;-60
2023/03/23 12:05:33;;;;;;;2.90;2.20;;;16.70;99.90;;;;;;5021469;28;20940;-60
2023/03/23 12:08:27;;;;;;;3.17;2.87;;;16.70;99.90;;;;;;5026487;28;20560;-61
2023/03/23 12:11:06;;;;;;;2.50;2.13;;;16.80;99.90;;;;;;5024908;28;20439;-60
2023/03/23 12:13:55;;;;;;;3.03;2.57;;;16.90;99.90;;;;;;5027470;28;20534;-61
2023/03/23 12:16:42;;;;;;;2.93;2.40;;;17.00;99.90;;;;;;5022352;28;20458;-60
2023/03/23 12:19:26;;;;;;;2.90;2.57;;;17.00;99.90;;;;;;5023848;28;20453;-60
2023/03/23 12:22:10;;;;;;;4.13;2.50;;;17.20;99.90;;;;;;5028800;28;20430;-61
2023/03/23 12:24:59;;;;;;;4.50;2.23;;;17.10;99.90;;;;;;5025849;28;20417;-60
2023/03/23 12:27:37;;;;;;;5.23;2.90;;;17.20;99.90;;;;;;5027010;28;20844;-60
2023/03/23 12:30:31;;;;;;;3.77;2.37;;;17.20;99.90;;;;;;5028212;28;21428;-61
2023/03/23 12:33:26;;;;;;;2.50;2.30;;;17.30;99.90;;;;;;5024032;28;20434;-61
2023/03/23 12:36:09;;;;;;;3.07;2.40;;;17.30;99.90;;;;;;5023980;28;20514;-61
2023/03/23 12:38:59;;;;;;;3.00;2.33;;;17.30;99.90;;;;;;5022359;28;20429;-61
2023/03/23 12:41:35;;;;;;;4.53;2.33;;;17.10;99.90;;;;;;5025004;28;20431;-61
2023/03/23 12:44:10;;;;;;;5.67;2.37;;;17.10;99.90;;;;;;5027685;28;20430;-60
2023/03/23 12:47:06;;;;;;;3.47;2.30;;;17.00;99.90;;;;;;5022769;28;20527;-60
2023/03/23 12:49:45;;;;;;;3.53;2.40;;;17.00;99.90;;;;;;5033035;28;20439;-61
2023/03/23 12:52:19;;;;;;;3.50;2.30;;;17.10;99.90;;;;;;5029100;28;21034;-61
2023/03/23 12:55:04;;;;;;;2.93;2.27;;;17.20;99.90;;;;;;5025410;28;20431;-61
2023/03/23 12:57:39;;;;;;;2.80;2.20;;;17.20;99.90;;;;;;5030681;28;20461;-61
2023/03/23 13:00:44;;;;;;;2.50;2.30;;;17.20;99.90;;;;;;5027677;28;21013;-61
2023/03/23 13:03:19;;;;;;;2.60;2.10;;;17.20;99.90;;;;;;5027341;28;20435;-61
2023/03/23 13:06:00;;;;;;;2.43;2.03;;;17.20;99.90;;;;;;5033824;28;20855;-61
2023/03/23 13:08:33;;;;;;;3.07;2.53;;;17.30;99.90;;;;;;5028609;28;20950;-61